Time;durP1;ratioP1;P1;durP2;ratioP2;P2;SDS_P1;SDS_P2;PMS_P1;PMS_P2;Temp;Humidity;BMP_temperature;BMP_pressure;BME280_temperature;BME280_humidity;BME280_pressure;Samples;Min_cycle;Max_cycle;Signal;HPM_P1;HPM_P2
2024/04/03 00:01:17;;;;;;;1.63;1.13;;;;;;;8.73;100.00;95863.09;5025736;28;20221;-77
2024/04/03 00:03:42;;;;;;;2.10;1.20;;;;;;;8.90;100.00;95861.19;5021016;28;20225;-73
2024/04/03 00:06:09;;;;;;;1.70;1.00;;;;;;;8.81;100.00;95867.50;5027821;28;20593;-74
2024/04/03 00:08:34;;;;;;;2.17;1.10;;;;;;;8.50;100.00;95861.44;5023121;28;20701;-73
2024/04/03 00:11:02;;;;;;;1.63;0.97;;;;;;;8.47;100.00;95874.13;5017497;28;20202;-75
2024/04/03 00:13:28;;;;;;;1.20;0.70;;;;;;;8.18;100.00;95863.44;5017717;28;20209;-78
2024/04/03 00:15:55;;;;;;;2.10;0.80;;;;;;;8.12;100.00;95856.19;5021067;28;20210;-74
2024/04/03 00:18:21;;;;;;;0.70;0.70;;;;;;;7.96;100.00;95856.28;5017824;28;20213;-73
2024/04/03 00:20:47;;;;;;;0.97;0.90;;;;;;;7.86;100.00;95853.03;5017140;28;20222;-77
2024/04/03 00:23:13;;;;;;;0.67;0.60;;;;;;;7.70;100.00;95853.09;5017699;28;20221;-75
2024/04/03 00:25:39;;;;;;;1.07;0.70;;;;;;;7.76;100.00;95856.84;5021539;28;20216;-75
2024/04/03 00:28:07;;;;;;;0.63;0.60;;;;;;;7.91;100.00;95848.09;5017117;28;21273;-73
2024/04/03 00:30:37;;;;;;;1.10;0.70;;;;;;;7.78;100.00;95839.97;5020241;28;20225;-75
2024/04/03 00:33:03;;;;;;;1.00;0.80;;;;;;;7.60;100.00;95839.38;5017743;28;20202;-75
2024/04/03 00:35:29;;;;;;;0.93;0.60;;;;;;;7.59;100.00;95837.72;5017726;28;20227;-75
2024/04/03 00:37:55;;;;;;;0.80;0.60;;;;;;;7.55;100.00;95833.81;5018972;28;20206;-75
2024/04/03 00:40:21;;;;;;;0.87;0.70;;;;;;;7.59;100.00;95824.63;5017382;28;21116;-75
2024/04/03 00:42:47;;;;;;;1.47;0.60;;;;;;;7.53;100.00;95829.72;5022898;28;20229;-74
2024/04/03 00:45:15;;;;;;;1.33;0.70;;;;;;;7.59;100.00;95834.28;5017619;28;20224;-75
2024/04/03 00:47:40;;;;;;;2.43;0.70;;;;;;;7.43;100.00;95822.06;5022588;28;20205;-78
2024/04/03 00:50:07;;;;;;;1.37;1.13;;;;;;;7.53;100.00;95822.66;5018413;28;20575;-73
2024/04/03 00:52:33;;;;;;;1.00;0.80;;;;;;;7.50;100.00;95820.38;5024673;28;20204;-73
2024/04/03 00:55:00;;;;;;;1.83;1.03;;;;;;;7.58;100.00;95825.59;5032346;28;20209;-77
2024/04/03 00:57:26;;;;;;;1.63;1.00;;;;;;;7.53;100.00;95817.41;5021316;28;20579;-73
2024/04/03 00:59:53;;;;;;;1.40;0.90;;;;;;;7.62;100.00;95816.41;5020320;28;20233;-75
2024/04/03 01:02:21;;;;;;;1.07;0.77;;;;;;;7.78;100.00;95815.53;5022640;28;20563;-72
2024/04/03 01:04:46;;;;;;;0.50;0.50;;;;;;;7.55;100.00;95807.59;5027128;28;20214;-73
2024/04/03 01:07:13;;;;;;;0.73;0.73;;;;;;;7.54;100.00;95803.31;5021265;28;20206;-76
2024/04/03 01:09:38;;;;;;;3.17;1.13;;;;;;;7.55;100.00;95812.84;5020434;28;20225;-75
2024/04/03 01:12:06;;;;;;;1.10;0.80;;;;;;;7.58;100.00;95796.75;5022139;28;20208;-75
2024/04/03 01:14:31;;;;;;;0.70;0.70;;;;;;;7.53;100.00;95793.00;5021294;28;20217;-74
2024/04/03 01:16:58;;;;;;;0.80;0.73;;;;;;;7.46;100.00;95797.31;5022875;28;20206;-72
2024/04/03 01:19:25;;;;;;;1.37;0.90;;;;;;;7.63;100.00;95781.34;5020969;28;20226;-75
2024/04/03 01:21:51;;;;;;;0.53;0.53;;;;;;;7.67;100.00;95774.75;5020613;28;20201;-73
2024/04/03 01:24:20;;;;;;;2.40;0.90;;;;;;;7.86;100.00;95776.97;5023215;28;20206;-73
2024/04/03 01:26:47;;;;;;;1.13;1.03;;;;;;;7.82;100.00;95773.06;5020204;28;20305;-74
2024/04/03 01:29:12;;;;;;;1.30;0.93;;;;;;;7.74;100.00;95764.41;5021091;28;20241;-73
2024/04/03 01:31:39;;;;;;;1.60;1.00;;;;;;;7.81;100.00;95771.41;5025996;28;20206;-77
2024/04/03 01:34:04;;;;;;;1.00;0.90;;;;;;;7.86;100.00;95769.09;5020897;28;20206;-75
2024/04/03 01:36:31;;;;;;;1.40;1.10;;;;;;;7.86;100.00;95769.09;5020875;28;20217;-77
2024/04/03 01:38:56;;;;;;;1.63;1.00;;;;;;;7.80;100.00;95764.53;5020544;28;21234;-74
2024/04/03 01:41:24;;;;;;;1.00;0.90;;;;;;;8.01;100.00;95768.19;5020480;28;20213;-75
2024/04/03 01:43:49;;;;;;;0.90;0.70;;;;;;;7.69;100.00;95767.56;5020337;28;20226;-74
2024/04/03 01:46:16;;;;;;;1.80;0.80;;;;;;;7.87;100.00;95755.00;5022216;28;20216;-73
2024/04/03 01:48:41;;;;;;;2.17;1.00;;;;;;;7.95;100.00;95739.22;5021798;28;20212;-73
2024/04/03 01:51:08;;;;;;;1.47;0.90;;;;;;;8.04;100.00;95727.69;5021691;28;20669;-72
2024/04/03 01:53:34;;;;;;;1.43;0.80;;;;;;;8.18;100.00;95727.75;5020293;28;20206;-77
2024/04/03 01:56:00;;;;;;;1.03;0.80;;;;;;;8.23;100.00;95729.88;5020351;28;20795;-72
2024/04/03 01:58:28;;;;;;;0.87;0.73;;;;;;;8.43;100.00;95736.31;5022820;28;20202;-76
2024/04/03 02:00:54;;;;;;;1.73;1.00;;;;;;;8.32;100.00;95732.25;5020654;28;20279;-77
2024/04/03 02:03:20;;;;;;;0.53;0.53;;;;;;;8.46;100.00;95736.75;5020367;28;20225;-73
2024/04/03 02:05:48;;;;;;;1.70;0.90;;;;;;;8.41;100.00;95722.53;5020820;28;20205;-77
2024/04/03 02:08:14;;;;;;;0.90;0.80;;;;;;;8.44;100.00;95723.00;5020108;28;20308;-76
2024/04/03 02:10:41;;;;;;;1.30;0.83;;;;;;;8.19;100.00;95720.72;5024210;28;20260;-73
2024/04/03 02:13:07;;;;;;;0.93;0.80;;;;;;;8.02;100.00;95717.38;5020473;28;20209;-74
2024/04/03 02:15:34;;;;;;;1.17;0.83;;;;;;;8.00;100.00;95708.03;5024614;28;20209;-73
2024/04/03 02:18:00;;;;;;;2.40;1.00;;;;;;;7.96;100.00;95706.75;5019270;28;20214;-76
2024/04/03 02:20:27;;;;;;;1.83;0.80;;;;;;;7.91;100.00;95715.13;5023548;28;20230;-76
2024/04/03 02:22:52;;;;;;;0.83;0.70;;;;;;;7.83;100.00;95708.28;5019192;28;20237;-72
2024/04/03 02:25:21;;;;;;;3.17;1.00;;;;;;;7.84;100.00;95708.16;5024416;28;20584;-77
2024/04/03 02:27:46;;;;;;;1.00;0.90;;;;;;;7.86;100.00;95706.97;5020890;28;20559;-73
2024/04/03 02:30:13;;;;;;;2.20;1.17;;;;;;;7.86;100.00;95708.78;5020596;28;20228;-77
2024/04/03 02:32:40;;;;;;;1.60;1.17;;;;;;;7.99;100.00;95698.53;5018835;28;20208;-78
2024/04/03 02:35:07;;;;;;;2.60;1.23;;;;;;;7.80;100.00;95700.78;5020738;28;20684;-74
2024/04/03 02:37:32;;;;;;;1.77;1.10;;;;;;;7.80;100.00;95695.53;5022380;28;20210;-76
2024/04/03 02:40:00;;;;;;;1.10;1.00;;;;;;;7.82;100.00;95693.56;5020887;28;20749;-78
2024/04/03 02:42:27;;;;;;;1.37;0.97;;;;;;;7.81;100.00;95692.75;5019197;28;20257;-73
2024/04/03 02:44:53;;;;;;;1.57;1.20;;;;;;;7.88;100.00;95693.69;5022572;28;20228;-75
2024/04/03 02:47:19;;;;;;;2.53;1.13;;;;;;;7.91;100.00;95685.47;5026368;28;20205;-76
2024/04/03 02:49:46;;;;;;;1.53;0.93;;;;;;;7.89;100.00;95685.66;5030642;28;20225;-73
2024/04/03 02:52:12;;;;;;;1.87;1.50;;;;;;;7.81;100.00;95686.69;5032767;28;20202;-73
2024/04/03 02:54:38;;;;;;;1.97;0.97;;;;;;;7.80;100.00;95685.84;5026630;28;20582;-75
2024/04/03 02:57:04;;;;;;;2.00;1.30;;;;;;;7.95;100.00;95684.13;5019212;28;20242;-77
2024/04/03 02:59:32;;;;;;;2.20;0.93;;;;;;;7.96;100.00;95691.00;5020886;28;20591;-74
2024/04/03 03:01:57;;;;;;;1.50;1.17;;;;;;;7.51;100.00;95685.72;5020536;28;20205;-75
2024/04/03 03:04:25;;;;;;;1.97;1.30;;;;;;;7.65;100.00;95682.34;5033367;28;20221;-72
2024/04/03 03:06:52;;;;;;;2.23;1.10;;;;;;;7.54;100.00;95680.13;5027152;28;20202;-73
2024/04/03 03:09:22;;;;;;;1.27;1.07;;;;;;;7.69;100.00;95678.41;5025217;28;20229;-73
2024/04/03 03:11:47;;;;;;;1.80;0.90;;;;;;;7.27;100.00;95677.16;5018911;28;20209;-76
2024/04/03 03:14:14;;;;;;;1.93;1.20;;;;;;;7.49;100.00;95661.47;5019884;28;20201;-73
2024/04/03 03:16:40;;;;;;;1.27;1.10;;;;;;;7.50;100.00;95663.09;5020192;28;20198;-78
2024/04/03 03:19:07;;;;;;;3.30;1.50;;;;;;;7.45;100.00;95669.84;5017640;28;21136;-74
2024/04/03 03:21:32;;;;;;;1.03;0.90;;;;;;;7.03;100.00;95671.19;5018406;28;20209;-75
2024/04/03 03:24:00;;;;;;;1.30;1.20;;;;;;;6.95;100.00;95664.16;5021229;28;20225;-76
2024/04/03 03:26:25;;;;;;;2.00;1.20;;;;;;;6.83;100.00;95654.22;5021829;28;20804;-76
2024/04/03 03:28:52;;;;;;;2.50;1.00;;;;;;;7.00;100.00;95658.41;5017245;28;20202;-78
2024/04/03 03:31:18;;;;;;;1.90;1.23;;;;;;;7.33;100.00;95652.84;5019168;28;20220;-73
2024/04/03 03:33:45;;;;;;;1.13;1.03;;;;;;;7.31;100.00;95652.22;5021487;28;20309;-73
2024/04/03 03:36:10;;;;;;;3.30;1.70;;;;;;;7.40;100.00;95652.00;5024999;28;20208;-74
2024/04/03 03:38:37;;;;;;;0.93;0.83;;;;;;;7.42;100.00;95649.22;5017631;28;20213;-75
2024/04/03 03:41:05;;;;;;;2.83;1.07;;;;;;;7.58;100.00;95655.19;5019681;28;20292;-78
2024/04/03 03:43:32;;;;;;;1.33;1.07;;;;;;;7.38;100.00;95654.00;5021524;28;20221;-77
2024/04/03 03:45:57;;;;;;;1.20;1.10;;;;;;;7.31;100.00;95649.59;5018586;28;20210;-72
2024/04/03 03:52:36;;;;;;;2.50;1.30;;;;;;;7.33;100.00;95645.00;5018859;28;20665;-74
2024/04/03 03:53:56;;;;;;;4.10;1.37;;;;;;;7.24;100.00;95639.97;5018523;28;20236;-76
2024/04/03 03:56:24;;;;;;;2.30;1.50;;;;;;;7.45;100.00;95641.81;5017862;28;20202;-74
2024/04/03 03:58:50;;;;;;;4.67;1.50;;;;;;;7.07;100.00;95635.81;5020833;28;20198;-75
2024/04/03 04:01:17;;;;;;;2.67;1.30;;;;;;;7.22;100.00;95627.06;5019459;28;20237;-72
2024/04/03 04:03:44;;;;;;;3.57;2.10;;;;;;;7.40;100.00;95638.09;5018373;28;20279;-75
2024/04/03 04:06:09;;;;;;;4.93;2.13;;;;;;;7.52;100.00;95628.84;5017528;28;20202;-73
2024/04/03 04:08:36;;;;;;;1.63;1.17;;;;;;;7.56;100.00;95630.13;5021320;28;20623;-75
2024/04/03 04:11:03;;;;;;;3.87;1.53;;;;;;;7.62;100.00;95619.75;5017278;28;20762;-75
2024/04/03 04:13:31;;;;;;;2.13;1.33;;;;;;;7.96;100.00;95617.56;5018249;28;20206;-77
2024/04/03 04:15:58;;;;;;;4.30;1.70;;;;;;;7.90;100.00;95619.09;5025227;28;20210;-76
2024/04/03 04:18:24;;;;;;;5.83;2.13;;;;;;;7.88;100.00;95613.19;5019993;28;20288;-73
2024/04/03 04:20:52;;;;;;;7.53;2.23;;;;;;;8.13;100.00;95608.56;5018968;28;20719;-73
2024/04/03 04:23:19;;;;;;;5.97;2.43;;;;;;;7.93;100.00;95617.91;5021368;28;20609;-73
2024/04/03 04:25:53;;;;;;;3.97;2.07;;;;;;;8.29;100.00;95618.97;5016991;28;20198;-75
2024/04/03 04:28:19;;;;;;;3.90;1.60;;;;;;;8.05;100.00;95613.88;5017855;28;20201;-73
2024/04/03 04:30:48;;;;;;;2.33;1.30;;;;;;;8.08;100.00;95616.13;5016488;28;20229;-77
2024/04/03 04:33:14;;;;;;;1.30;0.90;;;;;;;7.98;100.00;95616.41;5017598;28;20625;-73
2024/04/03 04:35:40;;;;;;;19.73;4.53;;;;;;;7.88;100.00;95620.25;5018283;28;20201;-73
2024/04/03 04:38:06;;;;;;;6.53;1.80;;;;;;;7.83;100.00;95622.59;5023556;28;20570;-76
2024/04/03 04:40:32;;;;;;;13.07;3.20;;;;;;;7.97;100.00;95608.72;5017038;28;20236;-72
2024/04/03 04:42:59;;;;;;;11.13;2.83;;;;;;;8.18;100.00;95614.13;5023124;28;20225;-76
2024/04/03 04:45:24;;;;;;;14.40;3.50;;;;;;;8.23;100.00;95612.59;5017681;28;20208;-76
2024/04/03 04:47:52;;;;;;;7.80;2.23;;;;;;;8.41;100.00;95609.66;5017614;28;20202;-76
2024/04/03 04:50:18;;;;;;;6.93;2.60;;;;;;;7.96;100.00;95613.13;5023011;28;20759;-76
2024/04/03 04:52:44;;;;;;;8.90;2.13;;;;;;;8.12;100.00;95617.41;5018311;28;20201;-75
2024/04/03 04:55:10;;;;;;;3.47;1.50;;;;;;;8.28;100.00;95609.44;5022461;28;20202;-74
2024/04/03 04:57:36;;;;;;;2.17;1.30;;;;;;;8.35;100.00;95615.59;5022196;28;20212;-74
2024/04/03 05:00:05;;;;;;;9.03;2.63;;;;;;;8.37;100.00;95619.69;5018208;28;20234;-75
2024/04/03 05:02:32;;;;;;;8.57;2.10;;;;;;;8.30;100.00;95625.81;5026629;28;20294;-74
2024/04/03 05:04:59;;;;;;;8.70;2.43;;;;;;;8.55;100.00;95625.41;5023072;28;20201;-74
2024/04/03 05:07:26;;;;;;;2.23;1.50;;;;;;;8.38;100.00;95623.94;5017592;28;20208;-74
2024/04/03 05:09:53;;;;;;;1.97;1.57;;;;;;;8.39;100.00;95622.97;5019434;28;20234;-73
2024/04/03 05:12:19;;;;;;;3.57;1.60;;;;;;;8.37;100.00;95626.75;5023578;28;20197;-73
2024/04/03 05:14:45;;;;;;;2.60;1.30;;;;;;;8.31;100.00;95633.53;5019124;28;20198;-74
2024/04/03 05:17:11;;;;;;;2.33;1.20;;;;;;;8.08;100.00;95627.47;5027570;28;20209;-76
2024/04/03 05:19:37;;;;;;;2.40;1.30;;;;;;;8.05;100.00;95627.81;5026481;28;20221;-73
2024/04/03 05:22:10;;;;;;;3.30;1.47;;;;;;;8.12;100.00;95618.25;5023997;28;20736;-77
2024/04/03 05:24:35;;;;;;;2.13;1.30;;;;;;;8.15;100.00;95619.72;5018346;28;20218;-74
2024/04/03 05:27:02;;;;;;;3.03;1.43;;;;;;;8.34;100.00;95619.22;5026189;28;20629;-76
2024/04/03 05:29:27;;;;;;;1.90;1.20;;;;;;;8.40;100.00;95621.13;5017501;28;20279;-74
2024/04/03 05:31:54;;;;;;;2.53;1.30;;;;;;;8.30;100.00;95623.19;5022636;28;20289;-73
2024/04/03 05:34:19;;;;;;;3.73;1.77;;;;;;;8.29;100.00;95621.59;5017236;28;20232;-75
2024/04/03 05:36:46;;;;;;;4.90;1.93;;;;;;;8.38;100.00;95610.00;5025302;28;20197;-76
2024/04/03 05:39:13;;;;;;;4.77;2.20;;;;;;;8.60;100.00;95604.69;5020984;28;20718;-74
2024/04/03 05:41:39;;;;;;;5.47;1.90;;;;;;;8.60;100.00;95607.31;5024053;28;20728;-73
2024/04/03 05:44:05;;;;;;;2.63;1.57;;;;;;;8.79;100.00;95591.03;5028468;28;20253;-76
2024/04/03 05:46:31;;;;;;;3.90;1.50;;;;;;;8.89;100.00;95600.25;5028212;28;20257;-77
2024/04/03 05:48:57;;;;;;;1.93;1.17;;;;;;;8.28;100.00;95606.81;5020068;28;20232;-77
2024/04/03 05:51:23;;;;;;;2.83;1.57;;;;;;;8.41;100.00;95607.03;5020819;28;20201;-74
2024/04/03 05:53:49;;;;;;;5.27;1.80;;;;;;;8.34;100.00;95611.34;5019458;28;20200;-79
2024/04/03 05:56:17;;;;;;;7.07;2.67;;;;;;;8.76;100.00;95607.97;5020477;28;20206;-73
2024/04/03 05:58:42;;;;;;;2.77;1.80;;;;;;;8.76;100.00;95621.09;5023056;28;20212;-77
2024/04/03 06:01:08;;;;;;;3.40;1.20;;;;;;;8.70;100.00;95619.16;5024989;28;20198;-74
2024/04/03 06:03:34;;;;;;;1.77;1.10;;;;;;;8.79;100.00;95623.34;5022723;28;20218;-73
2024/04/03 06:06:01;;;;;;;1.97;1.50;;;;;;;8.89;100.00;95626.53;5023721;28;20216;-77
2024/04/03 06:08:26;;;;;;;1.80;1.53;;;;;;;8.88;100.00;95627.50;5021481;28;20216;-76
2024/04/03 06:10:53;;;;;;;1.73;1.40;;;;;;;9.06;100.00;95635.84;5018255;28;20217;-73
2024/04/03 06:13:20;;;;;;;2.13;1.50;;;;;;;8.72;100.00;95638.22;5026270;28;20634;-76
2024/04/03 06:15:47;;;;;;;3.27;1.60;;;;;;;8.59;100.00;95639.81;5026657;28;20252;-79
2024/04/03 06:18:13;;;;;;;2.87;1.30;;;;;;;8.71;100.00;95636.56;5026792;28;20684;-73
2024/04/03 06:20:40;;;;;;;2.90;1.23;;;;;;;8.88;100.00;95643.28;5023325;28;20794;-74
2024/04/03 06:23:08;;;;;;;2.13;1.43;;;;;;;9.08;100.00;95635.69;5029431;28;20205;-78
2024/04/03 06:25:36;;;;;;;5.40;1.83;;;;;;;8.71;100.00;95636.56;5020470;28;20198;-74
2024/04/03 06:28:03;;;;;;;1.63;1.03;;;;;;;8.96;100.00;95634.50;5020125;28;20245;-74
2024/04/03 06:30:31;;;;;;;8.53;1.00;;;;;;;9.27;100.00;95633.31;5020863;28;20221;-74
2024/04/03 06:32:57;;;;;;;10.47;1.40;;;;;;;8.87;100.00;95638.19;5019542;28;20213;-74
2024/04/03 06:35:24;;;;;;;1.47;1.23;;;;;;;8.99;100.00;95629.69;5019837;28;20233;-73
2024/04/03 06:37:50;;;;;;;1.87;0.87;;;;;;;9.46;100.00;95627.47;5019565;28;20202;-73
2024/04/03 06:40:18;;;;;;;2.00;1.10;;;;;;;9.31;100.00;95624.84;5020471;28;20458;-74
2024/04/03 06:42:44;;;;;;;1.60;1.10;;;;;;;9.15;100.00;95627.69;5020673;28;20213;-77
2024/04/03 06:45:11;;;;;;;2.40;1.20;;;;;;;9.05;100.00;95625.50;5018667;28;20703;-76
2024/04/03 06:47:39;;;;;;;2.23;1.30;;;;;;;9.32;100.00;95626.47;5017354;28;20593;-75
2024/04/03 06:50:05;;;;;;;2.23;1.33;;;;;;;9.15;100.00;95625.06;5021191;28;20230;-78
2024/04/03 06:52:31;;;;;;;2.30;1.47;;;;;;;9.28;100.00;95632.31;5020900;28;20238;-78
2024/04/03 06:54:57;;;;;;;1.93;1.13;;;;;;;9.42;100.00;95618.28;5026326;28;20205;-76
2024/04/03 06:57:24;;;;;;;2.37;1.23;;;;;;;9.50;100.00;95641.88;5023798;28;20202;-78
2024/04/03 06:59:49;;;;;;;2.10;1.00;;;;;;;9.43;100.00;95648.84;5025763;28;20245;-78
2024/04/03 07:02:16;;;;;;;1.80;1.30;;;;;;;9.52;100.00;95642.50;5017943;28;20343;-74
2024/04/03 07:04:43;;;;;;;2.67;1.30;;;;;;;9.64;100.00;95643.66;5019111;28;20221;-74
2024/04/03 07:07:10;;;;;;;2.83;1.27;;;;;;;9.82;100.00;95635.13;5017527;28;20221;-76
2024/04/03 07:09:40;;;;;;;1.73;1.50;;;;;;;9.68;100.00;95631.75;5019449;28;20329;-77
2024/04/03 07:12:07;;;;;;;1.77;1.20;;;;;;;9.74;100.00;95635.25;5018784;28;21073;-78
2024/04/03 07:14:32;;;;;;;3.57;1.17;;;;;;;9.53;100.00;95628.34;5020366;28;20202;-77
2024/04/03 07:16:59;;;;;;;4.50;1.70;;;;;;;9.65;100.00;95629.47;5023293;28;20216;-73
2024/04/03 07:19:25;;;;;;;1.87;1.60;;;;;;;9.64;100.00;95627.88;5016375;28;20778;-75
2024/04/03 07:21:53;;;;;;;2.57;1.40;;;;;;;10.20;100.00;95623.41;5018983;28;20321;-78
2024/04/03 07:24:19;;;;;;;2.47;1.10;;;;;;;10.17;100.00;95622.97;5024649;28;20363;-78
2024/04/03 07:26:46;;;;;;;2.03;1.10;;;;;;;10.30;100.00;95623.91;5017573;28;20336;-79
2024/04/03 07:29:14;;;;;;;1.40;1.00;;;;;;;10.40;100.00;95624.41;5016334;28;20229;-74
2024/04/03 07:31:41;;;;;;;1.37;1.00;;;;;;;10.09;100.00;95633.63;5018936;28;20209;-76
2024/04/03 07:34:06;;;;;;;3.33;1.13;;;;;;;9.84;100.00;95642.88;5018110;28;20207;-74
2024/04/03 07:36:35;;;;;;;2.00;1.10;;;;;;;10.48;100.00;95637.41;5019822;28;20201;-75
2024/04/03 07:39:02;;;;;;;1.67;0.83;;;;;;;10.51;100.00;95639.66;5016951;28;20558;-73
2024/04/03 07:41:31;;;;;;;2.00;1.10;;;;;;;10.45;100.00;95645.69;5022484;28;20209;-74
2024/04/03 07:43:56;;;;;;;1.43;1.10;;;;;;;10.16;100.00;95648.47;5017470;28;20240;-74
2024/04/03 07:46:23;;;;;;;1.97;1.30;;;;;;;10.13;100.00;95646.25;5017222;28;20194;-76
2024/04/03 07:48:49;;;;;;;2.70;1.40;;;;;;;10.13;100.00;95637.50;5016295;28;20205;-77
2024/04/03 07:51:16;;;;;;;1.97;1.30;;;;;;;10.08;100.00;95651.25;5017643;28;20201;-78
2024/04/03 07:53:42;;;;;;;1.57;1.20;;;;;;;10.28;100.00;95643.53;5018783;28;20213;-73
2024/04/03 07:56:12;;;;;;;1.27;1.17;;;;;;;10.56;100.00;95640.72;5017236;28;20206;-76
2024/04/03 07:58:37;;;;;;;2.30;1.20;;;;;;;10.16;100.00;95643.22;5022413;28;20205;-79
2024/04/03 08:01:04;;;;;;;2.80;1.30;;;;;;;10.00;100.00;95637.38;5021952;28;20560;-77
2024/04/03 08:03:30;;;;;;;2.30;1.10;;;;;;;10.29;100.00;95638.06;5027366;28;20236;-79
2024/04/03 08:05:56;;;;;;;2.83;1.50;;;;;;;10.38;100.00;95650.91;5028059;28;20213;-80
2024/04/03 08:08:23;;;;;;;3.10;1.30;;;;;;;10.51;100.00;95660.75;5028077;28;20197;-74
2024/04/03 08:10:50;;;;;;;1.23;0.90;;;;;;;10.27;100.00;95655.06;5024895;28;20300;-74
2024/04/03 08:13:17;;;;;;;3.00;1.20;;;;;;;10.34;100.00;95656.75;5022025;28;20201;-75
2024/04/03 08:15:43;;;;;;;2.20;1.07;;;;;;;10.33;100.00;95676.19;5021725;28;20663;-78
2024/04/03 08:18:09;;;;;;;1.80;1.03;;;;;;;10.56;100.00;95674.16;5015628;28;20215;-75
2024/04/03 08:20:36;;;;;;;3.03;1.20;;;;;;;10.75;100.00;95678.78;5021803;28;20218;-76
2024/04/03 08:23:01;;;;;;;2.40;1.53;;;;;;;10.26;100.00;95680.59;5016328;28;20212;-75
2024/04/03 08:25:28;;;;;;;2.00;1.20;;;;;;;10.40;100.00;95677.06;5017996;28;20226;-77
2024/04/03 08:27:54;;;;;;;1.60;1.17;;;;;;;10.64;100.00;95676.66;5025110;28;20197;-73
2024/04/03 08:30:22;;;;;;;1.67;1.20;;;;;;;10.69;100.00;95682.16;5021560;28;20233;-74
2024/04/03 08:32:47;;;;;;;2.33;1.43;;;;;;;10.37;100.00;95682.69;5022475;28;20206;-78
2024/04/03 08:35:14;;;;;;;1.70;1.10;;;;;;;10.80;100.00;95684.28;5023722;28;20208;-78
2024/04/03 08:37:40;;;;;;;1.60;1.20;;;;;;;10.99;100.00;95682.59;5025212;28;20202;-74
2024/04/03 08:40:11;;;;;;;2.97;1.63;;;;;;;11.55;100.00;95675.44;5022902;28;20233;-78
2024/04/03 08:42:37;;;;;;;1.80;1.33;;;;;;;11.55;100.00;95683.38;5023973;28;20773;-76
2024/04/03 08:45:06;;;;;;;1.70;1.17;;;;;;;11.44;100.00;95687.31;5025597;28;20213;-78
2024/04/03 08:47:33;;;;;;;2.50;1.03;;;;;;;11.73;98.53;95690.53;5025950;28;20308;-79
2024/04/03 08:50:00;;;;;;;2.57;1.37;;;;;;;11.37;97.82;95683.84;5030365;28;20221;-78
2024/04/03 08:52:29;;;;;;;1.00;0.87;;;;;;;11.55;98.46;95691.28;5028588;28;20205;-76
2024/04/03 08:54:57;;;;;;;1.90;1.10;;;;;;;11.68;97.42;95687.69;5029060;28;20201;-76
2024/04/03 08:57:23;;;;;;;1.80;1.17;;;;;;;11.74;97.40;95686.88;5023372;28;20202;-76
2024/04/03 08:59:49;;;;;;;2.37;1.60;;;;;;;12.00;94.92;95680.88;5020541;28;20243;-77
2024/04/03 09:02:15;;;;;;;4.27;2.20;;;;;;;12.10;93.77;95678.69;5017163;28;20302;-76
2024/04/03 09:04:43;;;;;;;2.60;1.17;;;;;;;11.97;90.79;95676.00;5021372;28;20906;-78
2024/04/03 09:07:18;;;;;;;1.20;1.00;;;;;;;11.23;95.03;95670.78;5025566;28;20690;-73
2024/04/03 09:09:45;;;;;;;2.63;1.20;;;;;;;11.61;93.75;95675.47;5015814;28;20221;-78
2024/04/03 09:12:11;;;;;;;1.30;1.17;;;;;;;11.79;92.83;95658.06;5024188;28;20405;-76
2024/04/03 09:14:38;;;;;;;1.97;1.40;;;;;;;11.88;93.47;95661.38;5019971;28;20249;-74
2024/04/03 09:17:05;;;;;;;1.40;1.17;;;;;;;12.21;91.32;95658.59;5025602;28;20205;-73
2024/04/03 09:19:33;;;;;;;1.90;1.10;;;;;;;12.23;90.20;95651.28;5022698;28;20622;-76
2024/04/03 09:22:02;;;;;;;2.03;1.20;;;;;;;12.73;87.39;95648.06;5025154;28;20206;-79
2024/04/03 09:24:33;;;;;;;1.97;1.00;;;;;;;12.98;86.52;95641.97;5029419;28;20230;-78
2024/04/03 09:27:01;;;;;;;1.40;1.10;;;;;;;12.86;86.50;95642.78;5024970;28;20205;-76
2024/04/03 09:29:28;;;;;;;1.53;1.17;;;;;;;13.25;84.29;95642.72;5029693;28;20800;-75
2024/04/03 09:32:01;;;;;;;1.23;0.90;;;;;;;13.94;80.90;95625.94;5030018;28;20205;-74
2024/04/03 09:34:30;;;;;;;1.40;1.10;;;;;;;13.97;82.07;95625.53;5026709;28;20854;-78
2024/04/03 09:36:56;;;;;;;1.80;0.80;;;;;;;14.09;80.39;95614.91;5020755;28;20198;-75
2024/04/03 09:39:25;;;;;;;1.83;0.90;;;;;;;14.20;79.94;95608.09;5018498;28;21201;-74
2024/04/03 09:41:51;;;;;;;0.90;0.80;;;;;;;14.19;77.30;95606.47;5020055;28;20202;-74
2024/04/03 09:44:20;;;;;;;0.80;0.53;;;;;;;14.55;75.57;95617.22;5018895;28;20229;-78
2024/04/03 09:46:51;;;;;;;0.80;0.77;;;;;;;14.63;75.13;95614.31;5020277;28;20201;-77
2024/04/03 09:49:21;;;;;;;1.63;1.17;;;;;;;14.51;74.63;95616.03;5025447;28;20434;-76
2024/04/03 09:51:48;;;;;;;2.73;0.80;;;;;;;13.92;74.62;95623.50;5024992;28;20202;-75
2024/04/03 09:54:16;;;;;;;0.90;0.80;;;;;;;13.72;75.45;95624.63;5019939;28;20209;-75
2024/04/03 09:56:43;;;;;;;1.00;0.90;;;;;;;13.91;76.44;95615.78;5019145;28;20204;-73
2024/04/03 09:59:12;;;;;;;0.93;0.90;;;;;;;13.80;76.47;95614.63;5030935;28;20221;-76
2024/04/03 10:01:39;;;;;;;1.63;0.90;;;;;;;13.68;77.24;95618.13;5024041;28;20690;-76
2024/04/03 10:04:06;;;;;;;4.43;1.03;;;;;;;14.20;74.80;95605.44;5024320;28;20290;-77
2024/04/03 10:06:36;;;;;;;0.70;0.70;;;;;;;14.38;75.51;95603.66;5018202;28;20205;-74
2024/04/03 10:09:15;;;;;;;1.67;0.90;;;;;;;14.32;74.76;95601.06;5022189;28;20707;-74
2024/04/03 10:11:47;;;;;;;2.10;0.90;;;;;;;15.07;73.09;95599.81;5025677;28;20228;-75
2024/04/03 10:14:19;;;;;;;1.83;0.93;;;;;;;15.32;72.36;95597.94;5032249;28;20194;-76
2024/04/03 10:16:44;;;;;;;0.87;0.83;;;;;;;14.79;71.32;95593.34;5025017;28;20210;-75
2024/04/03 10:19:11;;;;;;;1.17;0.80;;;;;;;14.35;70.82;95590.06;5019291;28;20237;-77
2024/04/03 10:21:37;;;;;;;1.33;0.70;;;;;;;15.17;71.80;95592.13;5027559;28;20290;-76
2024/04/03 10:24:04;;;;;;;2.13;0.75;;;;;;;15.87;71.68;95585.19;5020887;28;21046;-73
2024/04/03 10:26:30;;;;;;;2.13;0.50;;;;;;;16.14;66.46;95575.00;5018318;28;20213;-77
2024/04/03 10:29:02;;;;;;;0.73;0.60;;;;;;;16.74;64.59;95574.69;5024138;28;21146;-73
2024/04/03 10:31:28;;;;;;;1.20;1.10;;;;;;;16.22;65.42;95582.66;5018313;28;20559;-73
2024/04/03 10:33:54;;;;;;;23.60;8.55;;;;;;;16.41;64.47;95576.25;5022536;28;20212;-76
2024/04/03 10:36:20;;;;;;;2.60;1.73;;;;;;;17.05;62.88;95575.16;5017560;28;20210;-77
2024/04/03 10:38:46;;;;;;;1.33;0.60;;;;;;;16.28;60.50;95582.59;5017352;28;20221;-75
2024/04/03 10:41:12;;;;;;;1.75;1.27;;;;;;;16.53;59.16;95575.22;5024853;28;20205;-73
2024/04/03 10:43:39;;;;;;;2.50;1.98;;;;;;;16.70;59.58;95577.00;5027839;28;20205;-77
2024/04/03 10:46:11;;;;;;;1.20;0.90;;;;;;;16.79;58.68;95575.63;5025104;28;20222;-73
2024/04/03 10:48:40;;;;;;;0.63;0.55;;;;;;;16.35;59.80;95572.66;5023108;28;20831;-75
2024/04/03 10:51:06;;;;;;;1.63;0.80;;;;;;;15.81;60.85;95579.13;5022741;28;20564;-76
2024/04/03 10:53:35;;;;;;;0.80;0.65;;;;;;;16.34;59.32;95581.66;5023353;28;20212;-75
2024/04/03 10:56:01;;;;;;;0.82;0.60;;;;;;;15.64;60.60;95586.91;5025094;28;20198;-78
2024/04/03 10:58:29;;;;;;;1.02;0.60;;;;;;;16.06;60.55;95578.81;5026508;28;20248;-74
2024/04/03 11:00:55;;;;;;;0.77;0.77;;;;;;;15.81;59.76;95592.44;5021056;28;20727;-76
2024/04/03 11:03:23;;;;;;;1.30;0.60;;;;;;;16.39;60.51;95589.78;5022999;28;20347;-74
2024/04/03 11:05:50;;;;;;;0.60;0.55;;;;;;;16.48;59.06;95589.25;5024091;28;20230;-75
2024/04/03 11:08:17;;;;;;;1.58;0.93;;;;;;;16.49;60.66;95579.41;5020366;28;20325;-73
2024/04/03 11:10:42;;;;;;;1.45;0.90;;;;;;;16.33;61.74;95582.72;5029057;28;20228;-74
2024/04/03 11:13:10;;;;;;;0.55;0.55;;;;;;;15.88;63.47;95589.47;5028739;28;20209;-76
2024/04/03 11:15:36;;;;;;;2.88;1.10;;;;;;;15.34;64.52;95587.91;5028696;28;20197;-78
2024/04/03 11:18:04;;;;;;;2.45;1.00;;;;;;;16.06;63.61;95580.63;5028586;28;20204;-78
2024/04/03 11:20:32;;;;;;;1.08;0.90;;;;;;;15.95;63.51;95584.88;5031743;28;20286;-73
2024/04/03 11:23:00;;;;;;;0.60;0.60;;;;;;;15.44;63.49;95586.34;5026672;28;20209;-77
2024/04/03 11:25:26;;;;;;;2.13;0.80;;;;;;;16.04;63.07;95582.72;5023889;28;20244;-73
2024/04/03 11:27:53;;;;;;;1.48;0.63;;;;;;;15.89;61.99;95590.28;5025666;28;20201;-73
2024/04/03 11:30:22;;;;;;;1.70;0.80;;;;;;;16.64;62.38;95591.22;5024345;28;20720;-74
2024/04/03 11:32:48;;;;;;;1.20;0.90;;;;;;;16.79;58.95;95586.25;5023843;28;20205;-75